Time;durP1;ratioP1;P1;durP2;ratioP2;P2;SDS_P1;SDS_P2;PMS_P1;PMS_P2;Temp;Humidity;BMP_temperature;BMP_pressure;BME280_temperature;BME280_humidity;BME280_pressure;Samples;Min_cycle;Max_cycle;Signal;HPM_P1;HPM_P2
2024/01/14 00:01:58;;;;;;;7.28;6.97;;;;;;;-145.48;100.00;64539.38;6264924;28;20082;-89
2024/01/14 00:05:00;;;;;;;7.90;7.57;;;;;;;-145.48;100.00;64539.38;6284036;28;20040;-89
2024/01/14 00:08:03;;;;;;;7.80;7.50;;;;;;;-145.48;100.00;64539.38;6286175;28;20048;-88
2024/01/14 00:11:05;;;;;;;8.57;7.13;;;;;;;-145.48;100.00;64539.38;6286557;28;20067;-90
2024/01/14 00:14:07;;;;;;;9.23;8.52;;;;;;;-145.48;100.00;64539.38;6274888;28;20089;-90
2024/01/14 00:17:10;;;;;;;8.32;7.85;;;;;;;-145.48;100.00;64539.38;6278488;28;20373;-89
2024/01/14 00:20:12;;;;;;;8.27;7.80;;;;;;;-145.48;100.00;64539.38;6284070;28;20036;-89
2024/01/14 00:23:14;;;;;;;12.98;8.32;;;;;;;-145.48;100.00;64539.38;6280098;28;20028;-90
2024/01/14 00:26:16;;;;;;;7.82;7.53;;;;;;;-145.48;100.00;64539.38;6277995;28;20044;-89
2024/01/14 00:29:17;;;;;;;9.40;8.90;;;;;;;-145.48;100.00;64539.38;6277138;28;20049;-90
2024/01/14 00:32:21;;;;;;;8.55;8.07;;;;;;;-145.48;100.00;64539.38;6285276;28;20534;-89
2024/01/14 00:35:23;;;;;;;7.80;7.30;;;;;;;-145.48;100.00;64539.38;6285003;28;20044;-88
2024/01/14 00:38:24;;;;;;;8.45;8.05;;;;;;;-145.48;100.00;64539.38;6286454;28;20040;-88
2024/01/14 00:41:26;;;;;;;7.22;6.85;;;;;;;-145.48;100.00;64539.38;6277024;28;20025;-89
2024/01/14 00:44:30;;;;;;;8.93;8.30;;;;;;;-145.48;100.00;64539.38;6278085;28;20044;-89
2024/01/14 00:47:32;;;;;;;21.38;10.60;;;;;;;-145.48;100.00;64539.38;6292945;28;20463;-91
2024/01/14 00:50:34;;;;;;;9.30;8.80;;;;;;;-145.48;100.00;64539.38;6269413;28;20037;-89
2024/01/14 00:53:35;;;;;;;6.95;6.65;;;;;;;-145.48;100.00;64539.38;6284854;28;20044;-89
2024/01/14 00:56:37;;;;;;;8.27;7.88;;;;;;;-145.48;100.00;64539.38;6287193;28;20044;-91
2024/01/14 00:59:40;;;;;;;8.30;7.65;;;;;;;-145.48;100.00;64539.38;6280865;28;20040;-90
2024/01/14 01:02:42;;;;;;;7.15;6.85;;;;;;;-145.48;100.00;64539.38;6280746;28;20127;-90
2024/01/14 01:05:44;;;;;;;7.47;7.07;;;;;;;-145.48;100.00;64539.38;6281089;28;20033;-90
2024/01/14 01:08:47;;;;;;;7.88;7.38;;;;;;;-145.48;100.00;64539.38;6277978;28;20037;-90
2024/01/14 01:11:49;;;;;;;7.15;6.68;;;;;;;-145.48;100.00;64539.38;6281220;28;20128;-91
2024/01/14 01:14:51;;;;;;;8.30;7.78;;;;;;;-145.48;100.00;64539.38;6296518;28;20602;-90
2024/01/14 01:17:53;;;;;;;8.75;8.25;;;;;;;-145.48;100.00;64539.38;6286675;28;20040;-90
2024/01/14 01:20:56;;;;;;;8.98;8.68;;;;;;;-145.48;100.00;64539.38;6284374;28;20158;-89
2024/01/14 01:23:58;;;;;;;8.43;7.78;;;;;;;-145.48;100.00;64539.38;6286996;28;20466;-89
2024/01/14 01:27:00;;;;;;;8.68;7.85;;;;;;;-145.48;100.00;64539.38;6288666;28;20410;-88
2024/01/14 01:30:03;;;;;;;7.13;6.82;;;;;;;-145.48;100.00;64539.38;6283510;28;20047;-90
2024/01/14 01:33:05;;;;;;;7.70;7.30;;;;;;;-145.48;100.00;64539.38;6276543;28;20024;-90
2024/01/14 01:36:08;;;;;;;9.55;8.90;;;;;;;-145.48;100.00;64539.38;6285879;28;20056;-92
2024/01/14 01:39:10;;;;;;;8.98;8.48;;;;;;;-145.48;100.00;64539.38;6274001;28;20376;-90
2024/01/14 01:42:12;;;;;;;7.93;7.45;;;;;;;-145.48;100.00;64539.38;6277560;28;20182;-90
2024/01/14 01:45:14;;;;;;;8.00;7.63;;;;;;;-145.48;100.00;64539.38;6274821;28;20052;-89
2024/01/14 01:48:16;;;;;;;7.57;7.28;;;;;;;-145.48;100.00;64539.38;6271420;28;20040;-89
2024/01/14 01:51:22;;;;;;;8.10;7.70;;;;;;;-145.48;100.00;64539.38;6281267;28;20043;-90
2024/01/14 01:54:27;;;;;;;8.20;7.60;;;;;;;-145.48;100.00;64539.38;6280286;28;20141;-90
2024/01/14 01:57:31;;;;;;;8.10;7.65;;;;;;;-145.48;100.00;64539.38;6279395;28;20040;-91
2024/01/14 02:00:34;;;;;;;8.05;7.72;;;;;;;-145.48;100.00;64539.38;6289098;28;20497;-91
2024/01/14 02:03:37;;;;;;;7.97;7.47;;;;;;;-145.48;100.00;64539.38;6280450;28;20048;-91
2024/01/14 02:06:41;;;;;;;7.35;6.75;;;;;;;-145.48;100.00;64539.38;6296751;28;20044;-91
2024/01/14 02:09:43;;;;;;;8.48;7.97;;;;;;;-145.48;100.00;64539.38;6283123;28;20113;-91
2024/01/14 02:12:45;;;;;;;8.10;7.50;;;;;;;-145.48;100.00;64539.38;6284753;28;20036;-90
2024/01/14 02:15:47;;;;;;;8.00;7.50;;;;;;;-145.48;100.00;64539.38;6285707;28;20051;-91
2024/01/14 02:18:49;;;;;;;6.38;6.07;;;;;;;-145.48;100.00;64539.38;6282669;28;20843;-92
2024/01/14 02:22:01;;;;;;;7.50;7.07;;;;;;;-145.48;100.00;64539.38;6274045;28;20091;-90
2024/01/14 02:25:04;;;;;;;7.82;7.50;;;;;;;-145.48;100.00;64539.38;6275183;28;20431;-91
2024/01/14 02:28:06;;;;;;;8.73;7.88;;;;;;;-145.48;100.00;64539.38;6282791;28;20132;-90
2024/01/14 02:31:08;;;;;;;8.55;8.07;;;;;;;-145.48;100.00;64539.38;6283839;28;20040;-94
2024/01/14 02:34:11;;;;;;;8.90;8.30;;;;;;;-145.48;100.00;64539.38;6274319;28;20075;-91
2024/01/14 02:37:13;;;;;;;7.80;7.40;;;;;;;-145.48;100.00;64539.38;6286172;28;20041;-92
2024/01/14 02:40:16;;;;;;;7.68;7.30;;;;;;;-145.48;100.00;64539.38;6278342;28;20158;-89
2024/01/14 02:43:18;;;;;;;7.40;7.05;;;;;;;-145.48;100.00;64539.38;6273057;28;20074;-89
2024/01/14 02:46:21;;;;;;;7.53;7.13;;;;;;;-145.48;100.00;64539.38;6286138;28;20037;-88
2024/01/14 02:49:23;;;;;;;8.00;7.43;;;;;;;-145.48;100.00;64539.38;6281041;28;20028;-87
2024/01/14 02:52:25;;;;;;;7.00;6.72;;;;;;;-145.48;100.00;64539.38;6270752;28;20053;-89
2024/01/14 02:55:27;;;;;;;8.45;8.05;;;;;;;-145.48;100.00;64539.38;6277035;28;20048;-88
2024/01/14 02:58:29;;;;;;;7.18;6.90;;;;;;;-145.48;100.00;64539.38;6271496;28;20049;-89
2024/01/14 03:01:31;;;;;;;7.45;7.13;;;;;;;-145.48;100.00;64539.38;6264602;28;20533;-89
2024/01/14 03:04:33;;;;;;;7.80;7.13;;;;;;;-145.48;100.00;64539.38;6280093;28;20094;-88
2024/01/14 03:07:35;;;;;;;7.13;6.82;;;;;;;-145.48;100.00;64539.38;6289594;28;20036;-88
2024/01/14 03:10:39;;;;;;;6.53;6.32;;;;;;;-145.48;100.00;64539.38;6278526;28;20454;-87
2024/01/14 03:13:41;;;;;;;7.57;7.13;;;;;;;-145.48;100.00;64539.38;6287610;28;20043;-90
2024/01/14 03:16:43;;;;;;;6.60;6.30;;;;;;;-145.48;100.00;64539.38;6285662;28;20075;-90
2024/01/14 03:19:45;;;;;;;6.63;6.35;;;;;;;-145.48;100.00;64539.38;6280561;28;20045;-90
2024/01/14 03:22:47;;;;;;;8.73;8.18;;;;;;;-145.48;100.00;64539.38;6281219;28;20041;-88
2024/01/14 03:25:49;;;;;;;7.80;7.30;;;;;;;-145.48;100.00;64539.38;6287224;28;20159;-89
2024/01/14 03:28:51;;;;;;;7.10;6.75;;;;;;;-145.48;100.00;64539.38;6282057;28;20498;-88
2024/01/14 03:31:53;;;;;;;7.18;6.88;;;;;;;-145.48;100.00;64539.38;6275343;28;20453;-88
2024/01/14 03:34:55;;;;;;;6.18;5.97;;;;;;;-145.48;100.00;64539.38;6277988;28;20048;-88
2024/01/14 03:37:58;;;;;;;9.30;6.90;;;;;;;-145.48;100.00;64539.38;6268781;28;20605;-89
2024/01/14 03:40:59;;;;;;;6.18;5.97;;;;;;;-145.48;100.00;64539.38;6271591;28;20415;-89
2024/01/14 03:44:01;;;;;;;5.85;5.65;;;;;;;-145.48;100.00;64539.38;6279412;28;20048;-89
2024/01/14 03:47:04;;;;;;;7.97;7.50;;;;;;;-145.48;100.00;64539.38;6270131;28;20037;-89
2024/01/14 03:50:06;;;;;;;6.25;5.95;;;;;;;-145.48;100.00;64539.38;6279034;28;20056;-90
2024/01/14 03:53:08;;;;;;;7.18;6.88;;;;;;;-145.48;100.00;64539.38;6265789;28;20056;-90
2024/01/14 03:56:10;;;;;;;6.25;6.05;;;;;;;-145.48;100.00;64539.38;6288942;28;20089;-90
2024/01/14 03:59:12;;;;;;;8.02;7.65;;;;;;;-145.48;100.00;64539.38;6278027;28;20407;-90
2024/01/14 04:02:14;;;;;;;7.28;6.97;;;;;;;-145.48;100.00;64539.38;6278685;28;20495;-90
2024/01/14 04:05:16;;;;;;;6.32;6.13;;;;;;;-145.48;100.00;64539.38;6287386;28;20067;-89
2024/01/14 04:08:18;;;;;;;7.60;7.30;;;;;;;-145.48;100.00;64539.38;6279367;28;20049;-90
2024/01/14 04:11:19;;;;;;;7.82;7.43;;;;;;;-145.48;100.00;64539.38;6283803;28;20197;-90
2024/01/14 04:14:22;;;;;;;7.40;7.00;;;;;;;-145.48;100.00;64539.38;6283415;28;20518;-89
2024/01/14 04:17:25;;;;;;;6.45;6.22;;;;;;;-145.48;100.00;64539.38;6270593;28;20505;-90
2024/01/14 04:20:27;;;;;;;6.97;6.68;;;;;;;-145.48;100.00;64539.38;6285611;28;20425;-90
2024/01/14 04:23:29;;;;;;;8.00;7.38;;;;;;;-145.48;100.00;64539.38;6282443;28;20036;-90
2024/01/14 04:26:31;;;;;;;6.90;6.60;;;;;;;-145.48;100.00;64539.38;6255762;28;20041;-89
2024/01/14 04:29:36;;;;;;;7.28;6.90;;;;;;;-145.48;100.00;64539.38;6275093;28;20032;-90
2024/01/14 04:32:38;;;;;;;6.32;6.13;;;;;;;-145.48;100.00;64539.38;6279274;28;20098;-90
2024/01/14 04:35:40;;;;;;;9.90;9.38;;;;;;;-145.48;100.00;64539.38;6289554;28;20509;-89
2024/01/14 04:38:43;;;;;;;8.75;7.47;;;;;;;-145.48;100.00;64539.38;6279784;28;20059;-89
2024/01/14 04:41:45;;;;;;;8.05;7.75;;;;;;;-145.48;100.00;64539.38;6277868;28;20039;-90
2024/01/14 04:44:47;;;;;;;8.25;6.75;;;;;;;-145.48;100.00;64539.38;6285121;28;20048;-89
2024/01/14 04:47:49;;;;;;;6.45;6.25;;;;;;;-145.48;100.00;64539.38;6284971;28;20044;-89
2024/01/14 04:50:52;;;;;;;6.10;5.90;;;;;;;-145.48;100.00;64539.38;6281265;28;20044;-90
2024/01/14 04:53:54;;;;;;;7.07;6.72;;;;;;;-145.48;100.00;64539.38;6281570;28;20037;-90
2024/01/14 04:56:57;;;;;;;6.93;6.57;;;;;;;-145.48;100.00;64539.38;6286318;28;20063;-89
2024/01/14 04:59:59;;;;;;;5.35;5.15;;;;;;;-145.48;100.00;64539.38;6278051;28;20049;-89
2024/01/14 05:03:02;;;;;;;6.18;5.88;;;;;;;-145.48;100.00;64539.38;6279603;28;20491;-90
2024/01/14 05:06:04;;;;;;;7.40;7.10;;;;;;;-145.48;100.00;64539.38;6275456;28;20037;-90
2024/01/14 05:09:08;;;;;;;6.63;6.32;;;;;;;-145.48;100.00;64539.38;6287432;28;20075;-90
2024/01/14 05:12:10;;;;;;;7.05;6.65;;;;;;;-145.48;100.00;64539.38;6275342;28;20361;-89
2024/01/14 05:15:13;;;;;;;7.47;7.00;;;;;;;-145.48;100.00;64539.38;6285926;28;20067;-90
2024/01/14 05:18:15;;;;;;;7.00;6.70;;;;;;;-145.48;100.00;64539.38;6280499;28;20036;-90
2024/01/14 05:21:17;;;;;;;6.43;6.13;;;;;;;-145.48;100.00;64539.38;6286422;28;20045;-91
2024/01/14 05:24:19;;;;;;;7.03;6.55;;;;;;;-145.48;100.00;64539.38;6278575;28;20143;-90
2024/01/14 05:27:21;;;;;;;6.55;6.35;;;;;;;-145.48;100.00;64539.38;6276872;28;20043;-90
2024/01/14 05:30:23;;;;;;;6.13;5.93;;;;;;;-145.48;100.00;64539.38;6286800;28;20036;-91
2024/01/14 05:33:26;;;;;;;6.68;6.35;;;;;;;-145.48;100.00;64539.38;6282142;28;20422;-91
2024/01/14 05:36:28;;;;;;;6.93;6.72;;;;;;;-145.48;100.00;64539.38;6281053;28;20037;-89
2024/01/14 05:39:30;;;;;;;6.28;6.07;;;;;;;-145.48;100.00;64539.38;6282095;28;20071;-90
2024/01/14 05:42:32;;;;;;;7.13;6.82;;;;;;;-145.48;100.00;64539.38;6267974;28;20458;-90
2024/01/14 05:45:37;;;;;;;8.05;7.60;;;;;;;-145.48;100.00;64539.38;6282835;28;20235;-90
2024/01/14 05:48:39;;;;;;;6.95;6.60;;;;;;;-145.48;100.00;64539.38;6282232;28;20036;-91
2024/01/14 05:51:41;;;;;;;6.28;6.07;;;;;;;-145.48;100.00;64539.38;6276041;28;20048;-91
2024/01/14 05:54:44;;;;;;;7.30;6.68;;;;;;;-145.48;100.00;64539.38;6281729;28;20516;-90
2024/01/14 05:57:46;;;;;;;16.63;7.20;;;;;;;-145.48;100.00;64539.38;6277992;28;20047;-90
2024/01/14 06:00:48;;;;;;;6.13;5.93;;;;;;;-145.48;100.00;64539.38;6280675;28;20090;-90
2024/01/14 06:03:54;;;;;;;7.35;7.00;;;;;;;-145.48;100.00;64539.38;6274792;28;20041;-90
2024/01/14 06:06:56;;;;;;;6.57;6.28;;;;;;;-145.48;100.00;64539.38;6281416;28;20254;-90
2024/01/14 06:09:58;;;;;;;5.68;5.47;;;;;;;-145.48;100.00;64539.38;6280724;28;20505;-90
2024/01/14 06:13:01;;;;;;;7.93;7.63;;;;;;;-145.48;100.00;64539.38;6280604;28;20145;-91
2024/01/14 06:16:03;;;;;;;6.40;6.15;;;;;;;-145.48;100.00;64539.38;6283235;28;20078;-91
2024/01/14 06:19:05;;;;;;;7.72;7.32;;;;;;;-145.48;100.00;64539.38;6284864;28;20044;-89
2024/01/14 06:22:07;;;;;;;6.18;5.97;;;;;;;-145.48;100.00;64539.38;6283123;28;20524;-89
2024/01/14 06:25:09;;;;;;;6.20;5.90;;;;;;;-145.48;100.00;64539.38;6273535;28;20048;-90
2024/01/14 06:28:11;;;;;;;6.00;5.80;;;;;;;-145.48;100.00;64539.38;6269290;28;20510;-89
2024/01/14 06:31:13;;;;;;;7.18;6.72;;;;;;;-145.48;100.00;64539.38;6277272;28;20414;-89
2024/01/14 06:34:15;;;;;;;6.75;6.55;;;;;;;-145.48;100.00;64539.38;6277010;28;20036;-88
2024/01/14 06:37:17;;;;;;;5.50;5.30;;;;;;;-145.48;100.00;64539.38;6277467;28;20033;-89
2024/01/14 06:40:18;;;;;;;6.55;6.25;;;;;;;-145.48;100.00;64539.38;6284418;28;20083;-88
2024/01/14 06:43:32;;;;;;;5.78;5.57;;;;;;;-145.48;100.00;64539.38;6279115;28;20043;-89
2024/01/14 06:46:34;;;;;;;6.60;6.30;;;;;;;-145.48;100.00;64539.38;6277011;28;20044;-89
2024/01/14 06:49:36;;;;;;;5.65;5.45;;;;;;;-145.48;100.00;64539.38;6285143;28;20040;-89
2024/01/14 06:52:38;;;;;;;6.38;6.18;;;;;;;-145.48;100.00;64539.38;6263095;28;20036;-89
2024/01/14 06:55:40;;;;;;;7.07;6.78;;;;;;;-145.48;100.00;64539.38;6283833;28;20508;-89
2024/01/14 06:58:42;;;;;;;24.13;6.82;;;;;;;-145.48;100.00;64539.38;6285583;28;20041;-89
2024/01/14 07:01:45;;;;;;;6.25;6.05;;;;;;;-145.48;100.00;64539.38;6278912;28;20036;-89
2024/01/14 07:04:47;;;;;;;5.78;5.57;;;;;;;-145.48;100.00;64539.38;6276526;28;20426;-89
2024/01/14 07:07:49;;;;;;;7.45;7.05;;;;;;;-145.48;100.00;64539.38;6282184;28;20505;-88
2024/01/14 07:10:53;;;;;;;6.55;6.25;;;;;;;-145.48;100.00;64539.38;6276335;28;20430;-88
2024/01/14 07:13:54;;;;;;;6.45;6.15;;;;;;;-145.48;100.00;64539.38;6286420;28;20135;-89
2024/01/14 07:16:56;;;;;;;6.88;6.57;;;;;;;-145.48;100.00;64539.38;6283287;28;20048;-88
2024/01/14 07:20:01;;;;;;;6.03;5.72;;;;;;;-145.48;100.00;64539.38;6283810;28;20406;-88
2024/01/14 07:23:04;;;;;;;6.40;6.20;;;;;;;-145.48;100.00;64539.38;6275606;28;20051;-89
2024/01/14 07:26:26;;;;;;;7.57;7.07;;;;;;;-145.48;100.00;64539.38;6273423;28;20037;-88
2024/01/14 07:29:28;;;;;;;7.68;7.07;;;;;;;-145.48;100.00;64539.38;6280455;28;20446;-88
2024/01/14 07:32:30;;;;;;;6.85;6.55;;;;;;;-145.48;100.00;64539.38;6271896;28;20049;-89
2024/01/14 07:35:32;;;;;;;6.65;6.35;;;;;;;-145.48;100.00;64539.38;6273601;28;20036;-90
2024/01/14 07:38:34;;;;;;;6.55;6.25;;;;;;;-145.48;100.00;64539.38;6285133;28;20040;-88
2024/01/14 07:41:36;;;;;;;6.22;5.95;;;;;;;-145.48;100.00;64539.38;6280876;28;20418;-89
2024/01/14 07:44:40;;;;;;;7.28;6.97;;;;;;;-145.48;100.00;64539.38;6283531;28;20055;-88
2024/01/14 07:47:42;;;;;;;6.63;6.30;;;;;;;-145.48;100.00;64539.38;6287555;28;20094;-88
2024/01/14 07:50:44;;;;;;;8.15;6.50;;;;;;;-145.48;100.00;64539.38;6282289;28;20335;-88
2024/01/14 07:53:46;;;;;;;6.40;6.20;;;;;;;-145.48;100.00;64539.38;6281949;28;20046;-88
2024/01/14 07:56:48;;;;;;;12.40;7.32;;;;;;;-145.48;100.00;64539.38;6276577;28;21243;-88
2024/01/14 07:59:50;;;;;;;7.25;6.95;;;;;;;-145.48;100.00;64539.38;6298386;28;20048;-89
2024/01/14 08:02:52;;;;;;;6.97;6.75;;;;;;;-145.48;100.00;64539.38;6282246;28;20041;-88
2024/01/14 08:05:55;;;;;;;6.95;6.65;;;;;;;-145.48;100.00;64539.38;6284607;28;20040;-89
2024/01/14 08:08:57;;;;;;;6.38;6.18;;;;;;;-145.48;100.00;64539.38;6281859;28;20119;-89
2024/01/14 08:11:58;;;;;;;6.97;6.78;;;;;;;-145.48;100.00;64539.38;6278352;28;20045;-89
2024/01/14 08:15:00;;;;;;;6.10;5.90;;;;;;;-145.48;100.00;64539.38;6281300;28;20075;-90
2024/01/14 08:18:02;;;;;;;18.50;6.32;;;;;;;-145.48;100.00;64539.38;6285929;28;20037;-89
2024/01/14 08:21:14;;;;;;;9.45;8.68;;;;;;;-145.48;100.00;64539.38;6286901;28;20040;-89
2024/01/14 08:24:16;;;;;;;8.27;7.88;;;;;;;-145.48;100.00;64539.38;6282583;28;20159;-89
2024/01/14 08:27:18;;;;;;;6.57;6.35;;;;;;;-145.48;100.00;64539.38;6277638;28;20051;-88
2024/01/14 08:30:21;;;;;;;6.95;6.55;;;;;;;-145.48;100.00;64539.38;6278773;28;20044;-88
2024/01/14 08:33:23;;;;;;;7.40;6.82;;;;;;;-145.48;100.00;64539.38;6282225;28;20052;-89
2024/01/14 08:36:25;;;;;;;6.78;6.47;;;;;;;-145.48;100.00;64539.38;6285309;28;20047;-89
2024/01/14 08:39:27;;;;;;;7.55;7.25;;;;;;;-145.48;100.00;64539.38;6280049;28;20494;-90
2024/01/14 08:42:29;;;;;;;7.68;7.18;;;;;;;-145.48;100.00;64539.38;6275479;28;20411;-91
2024/01/14 08:45:31;;;;;;;15.95;6.90;;;;;;;-145.48;100.00;64539.38;6281584;28;20056;-89
2024/01/14 08:48:33;;;;;;;6.32;5.90;;;;;;;-145.48;100.00;64539.38;6279381;28;20473;-89
2024/01/14 08:51:38;;;;;;;6.22;6.03;;;;;;;-145.48;100.00;64539.38;6288228;28;20387;-90
2024/01/14 08:54:40;;;;;;;5.85;5.65;;;;;;;-145.48;100.00;64539.38;6284541;28;20052;-90
2024/01/14 08:57:42;;;;;;;6.47;6.25;;;;;;;-145.48;100.00;64539.38;6283986;28;20295;-90
2024/01/14 09:00:46;;;;;;;7.00;6.70;;;;;;;-145.48;100.00;64539.38;6277498;28;20056;-89
2024/01/14 09:03:48;;;;;;;6.82;6.53;;;;;;;-145.48;100.00;64539.38;6287913;28;20414;-89
2024/01/14 09:06:50;;;;;;;7.18;6.88;;;;;;;-145.48;100.00;64539.38;6278810;28;20167;-87
2024/01/14 09:09:52;;;;;;;6.72;6.53;;;;;;;-145.48;100.00;64539.38;6276983;28;20064;-89
2024/01/14 09:12:56;;;;;;;7.22;6.93;;;;;;;-145.48;100.00;64539.38;6283138;28;20041;-89
2024/01/14 09:15:58;;;;;;;7.85;7.38;;;;;;;-145.48;100.00;64539.38;6284632;28;20500;-88
2024/01/14 09:19:00;;;;;;;8.23;7.72;;;;;;;-145.48;100.00;64539.38;6275166;28;20114;-88
2024/01/14 09:22:03;;;;;;;7.28;6.95;;;;;;;-145.48;100.00;64539.38;6285735;28;20425;-89
2024/01/14 09:25:05;;;;;;;7.25;6.95;;;;;;;-145.48;100.00;64539.38;6280218;28;20727;-88
2024/01/14 09:28:07;;;;;;;7.45;6.90;;;;;;;-145.48;100.00;64539.38;6278964;28;20059;-89
2024/01/14 09:31:08;;;;;;;7.22;6.82;;;;;;;-145.48;100.00;64539.38;6277872;28;20067;-88
2024/01/14 09:34:11;;;;;;;8.23;7.57;;;;;;;-145.48;100.00;64539.38;6291687;28;20057;-89
2024/01/14 09:37:13;;;;;;;7.47;6.95;;;;;;;-145.48;100.00;64539.38;6289222;28;20068;-88
2024/01/14 09:40:18;;;;;;;7.35;6.85;;;;;;;-145.48;100.00;64539.38;6271461;28;20045;-88
2024/01/14 09:43:20;;;;;;;6.18;5.97;;;;;;;-145.48;100.00;64539.38;6273802;28;20037;-88
2024/01/14 09:46:22;;;;;;;7.93;7.45;;;;;;;-145.48;100.00;64539.38;6278070;28;20144;-88
2024/01/14 09:49:24;;;;;;;6.68;6.43;;;;;;;-145.48;100.00;64539.38;6285084;28;20051;-88
2024/01/14 09:52:32;;;;;;;6.78;6.55;;;;;;;-145.48;100.00;64539.38;6272513;28;20371;-87
2024/01/14 09:55:36;;;;;;;6.30;6.10;;;;;;;-145.48;100.00;64539.38;6269049;28;20040;-88
2024/01/14 09:58:40;;;;;;;8.60;8.10;;;;;;;-145.48;100.00;64539.38;6273471;28;20044;-88
2024/01/14 10:01:42;;;;;;;7.13;6.85;;;;;;;-145.48;100.00;64539.38;6281644;28;20539;-89
2024/01/14 10:04:45;;;;;;;9.73;9.23;;;;;;;-145.48;100.00;64539.38;6280300;28;20141;-88
2024/01/14 10:07:49;;;;;;;8.60;8.20;;;;;;;-145.48;100.00;64539.38;6265020;28;20390;-88
2024/01/14 10:10:52;;;;;;;8.30;7.78;;;;;;;-145.48;100.00;64539.38;6274548;28;20040;-90
2024/01/14 10:13:59;;;;;;;8.95;8.35;;;;;;;-145.48;100.00;64539.38;6280075;28;20097;-89
2024/01/14 10:17:01;;;;;;;7.20;6.82;;;;;;;-145.48;100.00;64539.38;6289771;28;20055;-89
2024/01/14 10:20:03;;;;;;;7.18;6.88;;;;;;;-145.48;100.00;64539.38;6285526;28;20052;-86
2024/01/14 10:23:05;;;;;;;7.22;6.93;;;;;;;-145.48;100.00;64539.38;6281429;28;20116;-86
2024/01/14 10:26:08;;;;;;;9.10;8.40;;;;;;;-145.48;100.00;64539.38;6284198;28;20037;-87
2024/01/14 10:29:10;;;;;;;6.57;6.38;;;;;;;-145.48;100.00;64539.38;6282526;28;20055;-86
2024/01/14 10:32:13;;;;;;;7.20;6.90;;;;;;;-145.48;100.00;64539.38;6276194;28;20036;-85
2024/01/14 10:35:15;;;;;;;7.55;6.95;;;;;;;-145.48;100.00;64539.38;6279856;28;20394;-87
2024/01/14 10:38:25;;;;;;;7.80;7.40;;;;;;;-145.48;100.00;64539.38;6281842;28;20032;-88
2024/01/14 10:41:28;;;;;;;7.22;6.93;;;;;;;-145.48;100.00;64539.38;6279223;28;20036;-87
2024/01/14 10:44:31;;;;;;;7.68;7.35;;;;;;;-145.48;100.00;64539.38;6271934;28;20041;-87
2024/01/14 10:47:36;;;;;;;9.15;8.20;;;;;;;-145.48;100.00;64539.38;6284204;28;20043;-87
2024/01/14 10:50:43;;;;;;;8.65;8.15;;;;;;;-145.48;100.00;64539.38;6277988;28;20084;-87
2024/01/14 10:53:55;;;;;;;7.28;6.97;;;;;;;-145.48;100.00;64539.38;6287700;28;20063;-87
2024/01/14 10:57:23;;;;;;;6.90;6.63;;;;;;;-145.48;100.00;64539.38;6278608;28;20101;-88
2024/01/14 11:00:26;;;;;;;7.78;7.22;;;;;;;-145.48;100.00;64539.38;6272350;28;20410;-87
2024/01/14 11:03:29;;;;;;;8.18;7.78;;;;;;;-145.48;100.00;64539.38;6277730;28;20139;-87
2024/01/14 11:06:34;;;;;;;8.20;7.80;;;;;;;-145.48;100.00;64539.38;6274946;28;20522;-87
2024/01/14 11:09:38;;;;;;;8.10;7.70;;;;;;;-145.48;100.00;64539.38;6280431;28;20113;-87
2024/01/14 11:13:22;;;;;;;7.80;7.05;;;;;;;-145.48;100.00;64539.38;6295891;28;20041;-88
2024/01/14 11:16:42;;;;;;;10.55;9.77;;;;;;;-145.48;100.00;64539.38;6234825;28;20049;-88
2024/01/14 11:19:46;;;;;;;10.48;9.90;;;;;;;-145.48;100.00;64539.38;6239185;28;20042;-87
2024/01/14 11:22:50;;;;;;;14.55;8.88;;;;;;;-145.48;100.00;64539.38;6222693;28;20076;-86
2024/01/14 11:25:59;;;;;;;10.27;9.70;;;;;;;-145.48;100.00;64539.38;6225800;28;20518;-87
2024/01/14 11:29:03;;;;;;;9.18;8.60;;;;;;;-145.48;100.00;64539.38;6233360;28;20543;-87
2024/01/14 11:32:08;;;;;;;8.23;7.78;;;;;;;-145.48;100.00;64539.38;6225375;28;20236;-87
2024/01/14 11:35:37;;;;;;;9.38;8.88;;;;;;;-145.48;100.00;64539.38;6216588;28;20042;-87
2024/01/14 11:38:45;;;;;;;8.38;7.97;;;;;;;-145.48;100.00;64539.38;6227829;28;20048;-90
2024/01/14 11:41:47;;;;;;;8.18;7.57;;;;;;;-145.48;100.00;64539.38;6214903;28;20041;-87
2024/01/14 11:44:49;;;;;;;9.30;8.80;;;;;;;-145.48;100.00;64539.38;6227843;28;20033;-87
2024/01/14 11:47:53;;;;;;;7.72;7.43;;;;;;;-145.48;100.00;64539.38;6267417;28;20052;-88
2024/01/14 11:50:55;;;;;;;8.60;8.02;;;;;;;-145.48;100.00;64539.38;6284344;28;20040;-88
2024/01/14 11:54:00;;;;;;;9.95;9.35;;;;;;;-145.48;100.00;64539.38;6288122;28;20434;-88
2024/01/14 11:57:22;;;;;;;8.18;7.68;;;;;;;-145.48;100.00;64539.38;6274489;28;20102;-86
2024/01/14 12:00:26;;;;;;;7.57;7.18;;;;;;;-145.48;100.00;64539.38;6285287;28;20474;-87
2024/01/14 12:03:28;;;;;;;7.53;7.22;;;;;;;-145.48;100.00;64539.38;6287830;28;20079;-86
2024/01/14 12:06:41;;;;;;;9.63;8.02;;;;;;;-145.48;100.00;64539.38;6280547;28;20071;-87
2024/01/14 12:09:55;;;;;;;9.05;8.52;;;;;;;-145.48;100.00;64539.38;6278833;28;20407;-87
2024/01/14 12:12:57;;;;;;;7.43;7.13;;;;;;;-145.48;100.00;64539.38;6277861;28;20033;-86
2024/01/14 12:16:01;;;;;;;7.13;6.82;;;;;;;-145.48;100.00;64539.38;6283085;28;20040;-87
2024/01/14 12:19:18;;;;;;;6.90;6.60;;;;;;;-145.48;100.00;64539.38;6289071;28;20120;-87
2024/01/14 12:22:20;;;;;;;11.13;8.20;;;;;;;-145.48;100.00;64539.38;6270951;28;20166;-87
2024/01/14 12:25:22;;;;;;;7.78;7.43;;;;;;;-145.48;100.00;64539.38;6281075;28;20036;-87
2024/01/14 12:28:31;;;;;;;8.23;7.82;;;;;;;-145.48;100.00;64539.38;6282286;28;20032;-86
2024/01/14 12:31:34;;;;;;;6.95;6.65;;;;;;;-145.48;100.00;64539.38;6275724;28;20538;-87
2024/01/14 12:34:53;;;;;;;7.85;7.30;;;;;;;-145.48;100.00;64539.38;6278708;28;20071;-87
2024/01/14 12:37:56;;;;;;;8.40;7.82;;;;;;;-145.48;100.00;64539.38;6283617;28;20040;-87
2024/01/14 12:40:58;;;;;;;8.65;8.15;;;;;;;-145.48;100.00;64539.38;6278784;28;20078;-86
2024/01/14 12:44:01;;;;;;;13.18;7.10;;;;;;;-145.48;100.00;64539.38;6277614;28;20041;-87
2024/01/14 12:47:04;;;;;;;9.55;8.93;;;;;;;-145.48;100.00;64539.38;6273265;28;20037;-87
2024/01/14 12:50:07;;;;;;;8.25;7.75;;;;;;;-145.48;100.00;64539.38;6285086;28;20081;-88
2024/01/14 12:53:13;;;;;;;7.28;6.88;;;;;;;-145.48;100.00;64539.38;6269971;28;20666;-88
2024/01/14 12:56:15;;;;;;;6.90;6.60;;;;;;;-145.48;100.00;64539.38;6279207;28;20410;-87
2024/01/14 12:59:18;;;;;;;8.27;7.70;;;;;;;-145.48;100.00;64539.38;6291496;28;20047;-87
2024/01/14 13:02:21;;;;;;;9.35;8.55;;;;;;;-145.48;100.00;64539.38;6284943;28;20071;-87
2024/01/14 13:05:23;;;;;;;7.45;6.93;;;;;;;-145.48;100.00;64539.38;6275969;28;20388;-88
2024/01/14 13:08:25;;;;;;;9.18;8.27;;;;;;;-145.48;100.00;64539.38;6281457;28;20045;-87
2024/01/14 13:11:28;;;;;;;7.93;7.55;;;;;;;-145.48;100.00;64539.38;6281018;28;20036;-88
2024/01/14 13:14:31;;;;;;;8.18;7.72;;;;;;;-145.48;100.00;64539.38;6288746;28;20494;-87
2024/01/14 13:17:33;;;;;;;7.95;7.55;;;;;;;-145.48;100.00;64539.38;6274213;28;20540;-87
2024/01/14 13:20:37;;;;;;;9.23;6.95;;;;;;;-145.48;100.00;64539.38;6273171;28;20542;-87
2024/01/14 13:23:39;;;;;;;7.18;6.88;;;;;;;-145.48;100.00;64539.38;6286665;28;20165;-87
2024/01/14 13:26:42;;;;;;;7.45;6.88;;;;;;;-145.48;100.00;64539.38;6272842;28;20499;-87
2024/01/14 13:29:46;;;;;;;7.35;6.88;;;;;;;-145.48;100.00;64539.38;6284570;28;20052;-87
2024/01/14 13:32:49;;;;;;;6.75;6.45;;;;;;;-145.48;100.00;64539.38;6271104;28;20036;-86
2024/01/14 13:35:51;;;;;;;9.77;8.75;;;;;;;-145.48;100.00;64539.38;6285026;28;20033;-86
2024/01/14 13:38:53;;;;;;;6.47;6.28;;;;;;;-145.48;100.00;64539.38;6282448;28;20408;-87
2024/01/14 13:41:57;;;;;;;6.60;6.25;;;;;;;-145.48;100.00;64539.38;6272474;28;20579;-87
2024/01/14 13:44:59;;;;;;;6.80;6.55;;;;;;;-145.48;100.00;64539.38;6282318;28;20410;-88
2024/01/14 13:48:02;;;;;;;7.22;6.82;;;;;;;-145.48;100.00;64539.38;6286984;28;20036;-88
2024/01/14 13:51:05;;;;;;;8.50;7.88;;;;;;;-145.48;100.00;64539.38;6277878;28;20040;-88
2024/01/14 13:54:06;;;;;;;7.72;7.15;;;;;;;-145.48;100.00;64539.38;6284435;28;20418;-87